sensor_id;sensor_type;location;lat;lon;timestamp;temperature;humidity
12434;DHT22;6281;49.038;8.372;2022-10-16T00:01:08;15.90;99.90
12434;DHT22;6281;49.038;8.372;2022-10-16T00:03:36;15.90;99.90
12434;DHT22;6281;49.038;8.372;2022-10-16T00:06:03;15.90;99.90
12434;DHT22;6281;49.038;8.372;2022-10-16T00:08:31;16.00;99.90
12434;DHT22;6281;49.038;8.372;2022-10-16T00:11:03;15.90;99.90
12434;DHT22;6281;49.038;8.372;2022-10-16T00:13:31;16.00;99.90
12434;DHT22;6281;49.038;8.372;2022-10-16T00:16:00;16.00;99.90
12434;DHT22;6281;49.038;8.372;2022-10-16T00:18:28;16.00;99.90
12434;DHT22;6281;49.038;8.372;2022-10-16T00:21:02;16.00;99.90
12434;DHT22;6281;49.038;8.372;2022-10-16T00:23:29;16.00;99.90
12434;DHT22;6281;49.038;8.372;2022-10-16T00:25:56;16.00;99.90
12434;DHT22;6281;49.038;8.372;2022-10-16T00:28:24;15.90;99.90
12434;DHT22;6281;49.038;8.372;2022-10-16T00:30:51;15.90;99.90
12434;DHT22;6281;49.038;8.372;2022-10-16T00:33:20;15.90;99.90
12434;DHT22;6281;49.038;8.372;2022-10-16T00:35:47;15.90;99.90
12434;DHT22;6281;49.038;8.372;2022-10-16T00:38:15;15.90;99.90
12434;DHT22;6281;49.038;8.372;2022-10-16T00:40:42;15.90;99.90
12434;DHT22;6281;49.038;8.372;2022-10-16T00:43:13;15.90;99.90
12434;DHT22;6281;49.038;8.372;2022-10-16T00:45:41;15.90;99.90
12434;DHT22;6281;49.038;8.372;2022-10-16T00:48:11;15.90;99.90
12434;DHT22;6281;49.038;8.372;2022-10-16T00:50:41;15.90;99.90
12434;DHT22;6281;49.038;8.372;2022-10-16T00:53:10;15.90;99.90
12434;DHT22;6281;49.038;8.372;2022-10-16T00:55:38;15.90;99.90
12434;DHT22;6281;49.038;8.372;2022-10-16T00:58:06;15.90;99.90
12434;DHT22;6281;49.038;8.372;2022-10-16T01:00:33;15.80;99.90
12434;DHT22;6281;49.038;8.372;2022-10-16T01:03:01;15.80;99.90
12434;DHT22;6281;49.038;8.372;2022-10-16T01:05:33;15.90;99.90
12434;DHT22;6281;49.038;8.372;2022-10-16T01:08:08;15.90;99.90
12434;DHT22;6281;49.038;8.372;2022-10-16T01:10:41;15.90;99.90
12434;DHT22;6281;49.038;8.372;2022-10-16T01:13:15;15.90;99.90
12434;DHT22;6281;49.038;8.372;2022-10-16T01:15:48;15.80;99.90
12434;DHT22;6281;49.038;8.372;2022-10-16T01:18:21;15.90;99.90
12434;DHT22;6281;49.038;8.372;2022-10-16T01:20:56;15.80;99.90
12434;DHT22;6281;49.038;8.372;2022-10-16T01:23:38;15.80;99.90
12434;DHT22;6281;49.038;8.372;2022-10-16T01:29:05;15.80;99.90
12434;DHT22;6281;49.038;8.372;2022-10-16T01:31:36;15.80;99.90
12434;DHT22;6281;49.038;8.372;2022-10-16T01:34:10;15.80;99.90
12434;DHT22;6281;49.038;8.372;2022-10-16T01:36:44;15.80;99.90
12434;DHT22;6281;49.038;8.372;2022-10-16T01:39:13;15.70;99.90
12434;DHT22;6281;49.038;8.372;2022-10-16T01:41:47;15.70;99.90
12434;DHT22;6281;49.038;8.372;2022-10-16T01:44:19;15.70;99.90
12434;DHT22;6281;49.038;8.372;2022-10-16T01:46:49;15.80;99.90
12434;DHT22;6281;49.038;8.372;2022-10-16T01:49:17;15.70;99.90
12434;DHT22;6281;49.038;8.372;2022-10-16T01:51:47;15.70;99.90
12434;DHT22;6281;49.038;8.372;2022-10-16T01:54:16;15.70;99.90
12434;DHT22;6281;49.038;8.372;2022-10-16T01:56:45;15.70;99.90
12434;DHT22;6281;49.038;8.372;2022-10-16T01:59:14;15.70;99.90
12434;DHT22;6281;49.038;8.372;2022-10-16T02:01:48;15.70;99.90
12434;DHT22;6281;49.038;8.372;2022-10-16T02:04:20;15.70;99.90
12434;DHT22;6281;49.038;8.372;2022-10-16T02:06:48;15.60;99.90
12434;DHT22;6281;49.038;8.372;2022-10-16T02:09:15;15.60;99.90
12434;DHT22;6281;49.038;8.372;2022-10-16T02:11:42;15.50;99.90
12434;DHT22;6281;49.038;8.372;2022-10-16T02:14:09;15.50;99.90
12434;DHT22;6281;49.038;8.372;2022-10-16T02:16:39;15.50;99.90
12434;DHT22;6281;49.038;8.372;2022-10-16T02:19:08;15.50;99.90
12434;DHT22;6281;49.038;8.372;2022-10-16T02:21:41;15.40;99.90
12434;DHT22;6281;49.038;8.372;2022-10-16T02:24:15;15.40;99.90
12434;DHT22;6281;49.038;8.372;2022-10-16T02:26:50;15.50;99.90
12434;DHT22;6281;49.038;8.372;2022-10-16T02:29:22;15.40;99.90
12434;DHT22;6281;49.038;8.372;2022-10-16T02:31:55;15.40;99.90
12434;DHT22;6281;49.038;8.372;2022-10-16T02:34:26;15.40;99.90
12434;DHT22;6281;49.038;8.372;2022-10-16T02:36:54;15.40;99.90
12434;DHT22;6281;49.038;8.372;2022-10-16T02:39:21;15.40;99.90
12434;DHT22;6281;49.038;8.372;2022-10-16T02:41:48;15.50;99.90
12434;DHT22;6281;49.038;8.372;2022-10-16T02:44:15;15.40;99.90
12434;DHT22;6281;49.038;8.372;2022-10-16T02:46:42;15.50;99.90
12434;DHT22;6281;49.038;8.372;2022-10-16T02:49:09;15.50;99.90
12434;DHT22;6281;49.038;8.372;2022-10-16T02:51:38;15.40;99.90
12434;DHT22;6281;49.038;8.372;2022-10-16T02:54:05;15.40;99.90
12434;DHT22;6281;49.038;8.372;2022-10-16T02:56:31;15.40;99.90
12434;DHT22;6281;49.038;8.372;2022-10-16T02:58:58;15.40;99.90
12434;DHT22;6281;49.038;8.372;2022-10-16T03:01:25;15.40;99.90
12434;DHT22;6281;49.038;8.372;2022-10-16T03:03:52;15.40;99.90
12434;DHT22;6281;49.038;8.372;2022-10-16T03:06:19;15.40;99.90
12434;DHT22;6281;49.038;8.372;2022-10-16T03:08:47;15.50;99.90
12434;DHT22;6281;49.038;8.372;2022-10-16T03:11:14;15.40;99.90
12434;DHT22;6281;49.038;8.372;2022-10-16T03:13:41;15.30;99.90
12434;DHT22;6281;49.038;8.372;2022-10-16T03:16:08;15.20;99.90
12434;DHT22;6281;49.038;8.372;2022-10-16T03:18:35;15.20;99.90
12434;DHT22;6281;49.038;8.372;2022-10-16T03:21:02;15.20;99.90
12434;DHT22;6281;49.038;8.372;2022-10-16T03:23:29;15.30;99.90
12434;DHT22;6281;49.038;8.372;2022-10-16T03:25:57;15.30;99.90
12434;DHT22;6281;49.038;8.372;2022-10-16T03:28:24;15.20;99.90
12434;DHT22;6281;49.038;8.372;2022-10-16T03:30:51;15.20;99.90
12434;DHT22;6281;49.038;8.372;2022-10-16T03:33:18;15.20;99.90
12434;DHT22;6281;49.038;8.372;2022-10-16T03:35:51;15.20;99.90
12434;DHT22;6281;49.038;8.372;2022-10-16T03:38:19;15.30;99.90
12434;DHT22;6281;49.038;8.372;2022-10-16T03:40:45;15.20;99.90
12434;DHT22;6281;49.038;8.372;2022-10-16T03:43:17;15.30;99.90
12434;DHT22;6281;49.038;8.372;2022-10-16T03:45:44;15.20;99.90
12434;DHT22;6281;49.038;8.372;2022-10-16T03:48:10;15.30;99.90
12434;DHT22;6281;49.038;8.372;2022-10-16T03:50:37;15.30;99.90
12434;DHT22;6281;49.038;8.372;2022-10-16T03:53:04;15.20;99.90
12434;DHT22;6281;49.038;8.372;2022-10-16T03:55:31;15.20;99.90
12434;DHT22;6281;49.038;8.372;2022-10-16T03:57:58;15.20;99.90
12434;DHT22;6281;49.038;8.372;2022-10-16T04:00:26;15.10;99.90
12434;DHT22;6281;49.038;8.372;2022-10-16T04:02:54;15.10;99.90
12434;DHT22;6281;49.038;8.372;2022-10-16T04:05:21;15.10;99.90
12434;DHT22;6281;49.038;8.372;2022-10-16T04:07:48;15.20;99.90
12434;DHT22;6281;49.038;8.372;2022-10-16T04:10:15;15.30;99.90
12434;DHT22;6281;49.038;8.372;2022-10-16T04:12:42;15.20;99.90
12434;DHT22;6281;49.038;8.372;2022-10-16T04:15:09;15.30;99.90
12434;DHT22;6281;49.038;8.372;2022-10-16T04:17:38;15.30;99.90
12434;DHT22;6281;49.038;8.372;2022-10-16T04:20:05;15.30;99.90
12434;DHT22;6281;49.038;8.372;2022-10-16T04:22:32;15.30;99.90
12434;DHT22;6281;49.038;8.372;2022-10-16T04:24:59;15.30;99.90
12434;DHT22;6281;49.038;8.372;2022-10-16T04:27:26;15.40;99.90
12434;DHT22;6281;49.038;8.372;2022-10-16T04:29:53;15.40;99.90
12434;DHT22;6281;49.038;8.372;2022-10-16T04:32:20;15.40;99.90
12434;DHT22;6281;49.038;8.372;2022-10-16T04:34:49;15.30;99.90
12434;DHT22;6281;49.038;8.372;2022-10-16T04:37:15;15.40;99.90
12434;DHT22;6281;49.038;8.372;2022-10-16T04:39:42;15.50;99.90
12434;DHT22;6281;49.038;8.372;2022-10-16T04:42:10;15.50;99.90
12434;DHT22;6281;49.038;8.372;2022-10-16T04:44:37;15.50;99.90
12434;DHT22;6281;49.038;8.372;2022-10-16T04:47:04;15.50;99.90
12434;DHT22;6281;49.038;8.372;2022-10-16T04:49:31;15.50;99.90
12434;DHT22;6281;49.038;8.372;2022-10-16T04:51:59;15.50;99.90
12434;DHT22;6281;49.038;8.372;2022-10-16T04:54:26;15.60;99.90
12434;DHT22;6281;49.038;8.372;2022-10-16T04:56:53;15.60;99.90
12434;DHT22;6281;49.038;8.372;2022-10-16T04:59:20;15.60;99.90
12434;DHT22;6281;49.038;8.372;2022-10-16T05:01:47;15.60;99.90
12434;DHT22;6281;49.038;8.372;2022-10-16T05:04:15;15.50;99.90
12434;DHT22;6281;49.038;8.372;2022-10-16T05:06:42;15.60;99.90
12434;DHT22;6281;49.038;8.372;2022-10-16T05:09:10;15.50;99.90
12434;DHT22;6281;49.038;8.372;2022-10-16T05:11:37;15.50;99.90
12434;DHT22;6281;49.038;8.372;2022-10-16T05:14:04;15.50;99.90
12434;DHT22;6281;49.038;8.372;2022-10-16T05:16:31;15.50;99.90
12434;DHT22;6281;49.038;8.372;2022-10-16T05:18:58;15.60;99.90
12434;DHT22;6281;49.038;8.372;2022-10-16T05:21:25;15.60;99.90
12434;DHT22;6281;49.038;8.372;2022-10-16T05:23:53;15.60;99.90
12434;DHT22;6281;49.038;8.372;2022-10-16T05:26:22;15.60;99.90
12434;DHT22;6281;49.038;8.372;2022-10-16T05:28:49;15.50;99.90
12434;DHT22;6281;49.038;8.372;2022-10-16T05:31:16;15.50;99.90
12434;DHT22;6281;49.038;8.372;2022-10-16T05:33:43;15.50;99.90
12434;DHT22;6281;49.038;8.372;2022-10-16T05:36:10;15.50;99.90
12434;DHT22;6281;49.038;8.372;2022-10-16T05:38:38;15.50;99.90
12434;DHT22;6281;49.038;8.372;2022-10-16T05:41:05;15.50;99.90
12434;DHT22;6281;49.038;8.372;2022-10-16T05:43:34;15.50;99.90
12434;DHT22;6281;49.038;8.372;2022-10-16T05:46:04;15.50;99.90
12434;DHT22;6281;49.038;8.372;2022-10-16T05:48:31;15.50;99.90
12434;DHT22;6281;49.038;8.372;2022-10-16T05:50:59;15.50;99.90
12434;DHT22;6281;49.038;8.372;2022-10-16T05:53:27;15.50;99.90
12434;DHT22;6281;49.038;8.372;2022-10-16T05:55:55;15.50;99.90
12434;DHT22;6281;49.038;8.372;2022-10-16T05:58:23;15.40;99.90
12434;DHT22;6281;49.038;8.372;2022-10-16T06:00:57;15.30;99.90
12434;DHT22;6281;49.038;8.372;2022-10-16T06:03:24;15.20;99.90
12434;DHT22;6281;49.038;8.372;2022-10-16T06:05:52;15.20;99.90
12434;DHT22;6281;49.038;8.372;2022-10-16T06:08:20;15.20;99.90
12434;DHT22;6281;49.038;8.372;2022-10-16T06:10:48;15.30;99.90
12434;DHT22;6281;49.038;8.372;2022-10-16T06:13:16;15.30;99.90
12434;DHT22;6281;49.038;8.372;2022-10-16T06:15:42;15.30;99.90
12434;DHT22;6281;49.038;8.372;2022-10-16T06:18:11;15.30;99.90
12434;DHT22;6281;49.038;8.372;2022-10-16T06:20:38;15.30;99.90
12434;DHT22;6281;49.038;8.372;2022-10-16T06:23:05;15.30;99.90
12434;DHT22;6281;49.038;8.372;2022-10-16T06:25:32;15.30;99.90
12434;DHT22;6281;49.038;8.372;2022-10-16T06:27:59;15.30;99.90
12434;DHT22;6281;49.038;8.372;2022-10-16T06:30:25;15.30;99.90
12434;DHT22;6281;49.038;8.372;2022-10-16T06:32:52;15.40;99.90
12434;DHT22;6281;49.038;8.372;2022-10-16T06:35:21;15.40;99.90
12434;DHT22;6281;49.038;8.372;2022-10-16T06:37:48;15.50;99.90
12434;DHT22;6281;49.038;8.372;2022-10-16T06:40:15;15.50;99.90
12434;DHT22;6281;49.038;8.372;2022-10-16T06:42:42;15.50;99.90
12434;DHT22;6281;49.038;8.372;2022-10-16T06:45:09;15.50;99.90
12434;DHT22;6281;49.038;8.372;2022-10-16T06:47:36;15.50;99.90
12434;DHT22;6281;49.038;8.372;2022-10-16T06:50:04;15.50;99.90
12434;DHT22;6281;49.038;8.372;2022-10-16T06:52:33;15.60;99.90
12434;DHT22;6281;49.038;8.372;2022-10-16T06:55:00;15.70;99.90
12434;DHT22;6281;49.038;8.372;2022-10-16T06:57:28;15.70;99.90
12434;DHT22;6281;49.038;8.372;2022-10-16T06:59:55;15.70;99.90
12434;DHT22;6281;49.038;8.372;2022-10-16T07:02:22;15.70;99.90
12434;DHT22;6281;49.038;8.372;2022-10-16T07:04:49;15.80;99.90
12434;DHT22;6281;49.038;8.372;2022-10-16T07:07:15;15.80;99.90
12434;DHT22;6281;49.038;8.372;2022-10-16T07:09:44;15.90;99.90
12434;DHT22;6281;49.038;8.372;2022-10-16T07:12:11;15.90;99.90
12434;DHT22;6281;49.038;8.372;2022-10-16T07:14:38;16.00;99.90
12434;DHT22;6281;49.038;8.372;2022-10-16T07:17:05;16.10;99.90
12434;DHT22;6281;49.038;8.372;2022-10-16T07:19:32;16.10;99.90
12434;DHT22;6281;49.038;8.372;2022-10-16T07:21:59;16.10;99.90
12434;DHT22;6281;49.038;8.372;2022-10-16T07:24:26;16.10;99.90
12434;DHT22;6281;49.038;8.372;2022-10-16T07:26:54;16.20;99.90
12434;DHT22;6281;49.038;8.372;2022-10-16T07:29:21;16.20;99.90
12434;DHT22;6281;49.038;8.372;2022-10-16T07:31:49;16.30;99.90
12434;DHT22;6281;49.038;8.372;2022-10-16T07:34:17;16.30;99.90
12434;DHT22;6281;49.038;8.372;2022-10-16T07:36:47;16.20;99.90
12434;DHT22;6281;49.038;8.372;2022-10-16T07:39:14;16.30;99.90
12434;DHT22;6281;49.038;8.372;2022-10-16T07:41:41;16.30;99.90
12434;DHT22;6281;49.038;8.372;2022-10-16T07:44:09;16.40;99.90
12434;DHT22;6281;49.038;8.372;2022-10-16T07:46:36;16.40;99.90
12434;DHT22;6281;49.038;8.372;2022-10-16T07:49:03;16.50;99.90
12434;DHT22;6281;49.038;8.372;2022-10-16T07:51:30;16.50;99.90
12434;DHT22;6281;49.038;8.372;2022-10-16T07:53:57;16.60;99.90
12434;DHT22;6281;49.038;8.372;2022-10-16T07:56:24;16.60;99.90
12434;DHT22;6281;49.038;8.372;2022-10-16T07:58:51;16.70;99.90
12434;DHT22;6281;49.038;8.372;2022-10-16T08:01:20;16.60;99.90
12434;DHT22;6281;49.038;8.372;2022-10-16T08:03:48;16.60;99.90
12434;DHT22;6281;49.038;8.372;2022-10-16T08:06:15;16.70;99.90
12434;DHT22;6281;49.038;8.372;2022-10-16T08:08:42;16.70;99.90
12434;DHT22;6281;49.038;8.372;2022-10-16T08:11:10;16.80;99.90
12434;DHT22;6281;49.038;8.372;2022-10-16T08:13:37;16.80;99.90
12434;DHT22;6281;49.038;8.372;2022-10-16T08:16:04;16.70;99.90
12434;DHT22;6281;49.038;8.372;2022-10-16T08:18:35;16.90;99.90
12434;DHT22;6281;49.038;8.372;2022-10-16T08:21:02;17.00;99.90
12434;DHT22;6281;49.038;8.372;2022-10-16T08:23:29;17.10;99.90
12434;DHT22;6281;49.038;8.372;2022-10-16T08:26:02;17.10;99.90
12434;DHT22;6281;49.038;8.372;2022-10-16T08:28:30;17.10;99.90
12434;DHT22;6281;49.038;8.372;2022-10-16T08:31:05;17.10;99.90
12434;DHT22;6281;49.038;8.372;2022-10-16T08:33:34;17.20;99.90
12434;DHT22;6281;49.038;8.372;2022-10-16T08:36:02;17.10;99.90
12434;DHT22;6281;49.038;8.372;2022-10-16T08:38:29;17.30;99.90
12434;DHT22;6281;49.038;8.372;2022-10-16T08:41:02;17.30;99.90
12434;DHT22;6281;49.038;8.372;2022-10-16T08:43:42;17.20;99.90
12434;DHT22;6281;49.038;8.372;2022-10-16T08:46:25;17.30;99.90
12434;DHT22;6281;49.038;8.372;2022-10-16T08:48:59;17.30;99.90
12434;DHT22;6281;49.038;8.372;2022-10-16T08:51:28;17.40;99.90
12434;DHT22;6281;49.038;8.372;2022-10-16T08:53:58;17.40;99.90
12434;DHT22;6281;49.038;8.372;2022-10-16T08:56:26;17.40;99.90
12434;DHT22;6281;49.038;8.372;2022-10-16T08:58:53;17.50;99.90
12434;DHT22;6281;49.038;8.372;2022-10-16T09:01:35;17.50;99.90
12434;DHT22;6281;49.038;8.372;2022-10-16T09:07:15;17.70;99.90
12434;DHT22;6281;49.038;8.372;2022-10-16T09:09:54;17.60;99.90
12434;DHT22;6281;49.038;8.372;2022-10-16T09:12:27;17.70;99.90
12434;DHT22;6281;49.038;8.372;2022-10-16T09:15:03;17.70;99.90
12434;DHT22;6281;49.038;8.372;2022-10-16T09:17:44;17.60;99.90
12434;DHT22;6281;49.038;8.372;2022-10-16T09:20:26;17.70;99.90
12434;DHT22;6281;49.038;8.372;2022-10-16T09:23:08;17.70;99.90
12434;DHT22;6281;49.038;8.372;2022-10-16T09:25:38;17.80;99.90
12434;DHT22;6281;49.038;8.372;2022-10-16T09:28:07;17.70;99.90
12434;DHT22;6281;49.038;8.372;2022-10-16T09:30:34;17.60;99.90
12434;DHT22;6281;49.038;8.372;2022-10-16T09:33:02;17.60;99.90
12434;DHT22;6281;49.038;8.372;2022-10-16T09:35:32;17.80;99.90
12434;DHT22;6281;49.038;8.372;2022-10-16T09:38:03;17.90;99.90
12434;DHT22;6281;49.038;8.372;2022-10-16T09:40:31;18.20;99.90
12434;DHT22;6281;49.038;8.372;2022-10-16T09:43:03;18.40;99.90
12434;DHT22;6281;49.038;8.372;2022-10-16T09:45:33;18.60;99.90
12434;DHT22;6281;49.038;8.372;2022-10-16T09:50:28;19.20;99.90
12434;DHT22;6281;49.038;8.372;2022-10-16T09:53:10;19.40;99.90
12434;DHT22;6281;49.038;8.372;2022-10-16T09:55:48;19.40;99.90
12434;DHT22;6281;49.038;8.372;2022-10-16T09:58:17;19.40;99.90
12434;DHT22;6281;49.038;8.372;2022-10-16T10:00:50;19.30;99.90
12434;DHT22;6281;49.038;8.372;2022-10-16T10:03:36;19.50;99.90
12434;DHT22;6281;49.038;8.372;2022-10-16T10:06:15;19.60;99.90
12434;DHT22;6281;49.038;8.372;2022-10-16T10:08:55;19.60;99.90
12434;DHT22;6281;49.038;8.372;2022-10-16T10:11:49;19.60;99.90
12434;DHT22;6281;49.038;8.372;2022-10-16T10:14:22;19.80;99.90
12434;DHT22;6281;49.038;8.372;2022-10-16T10:16:51;19.80;99.90
12434;DHT22;6281;49.038;8.372;2022-10-16T10:19:20;19.50;99.90
12434;DHT22;6281;49.038;8.372;2022-10-16T10:21:48;19.50;99.90
12434;DHT22;6281;49.038;8.372;2022-10-16T10:24:17;19.90;99.90
12434;DHT22;6281;49.038;8.372;2022-10-16T10:26:49;20.20;99.90
12434;DHT22;6281;49.038;8.372;2022-10-16T10:29:31;20.50;99.90
12434;DHT22;6281;49.038;8.372;2022-10-16T10:32:08;20.80;99.90
12434;DHT22;6281;49.038;8.372;2022-10-16T10:34:52;22.60;99.90
12434;DHT22;6281;49.038;8.372;2022-10-16T10:37:34;24.80;99.90
12434;DHT22;6281;49.038;8.372;2022-10-16T10:40:22;27.40;99.90
12434;DHT22;6281;49.038;8.372;2022-10-16T10:42:55;25.70;99.90
12434;DHT22;6281;49.038;8.372;2022-10-16T10:45:27;22.70;99.90
12434;DHT22;6281;49.038;8.372;2022-10-16T10:48:03;21.60;99.90
12434;DHT22;6281;49.038;8.372;2022-10-16T10:50:38;21.50;99.90
12434;DHT22;6281;49.038;8.372;2022-10-16T10:53:11;21.20;99.90
12434;DHT22;6281;49.038;8.372;2022-10-16T10:55:47;20.90;99.90
12434;DHT22;6281;49.038;8.372;2022-10-16T10:58:29;20.90;99.90
12434;DHT22;6281;49.038;8.372;2022-10-16T11:01:06;20.70;99.90
12434;DHT22;6281;49.038;8.372;2022-10-16T11:03:59;21.30;99.90
12434;DHT22;6281;49.038;8.372;2022-10-16T11:06:30;21.00;99.90
12434;DHT22;6281;49.038;8.372;2022-10-16T11:09:02;20.70;99.90
12434;DHT22;6281;49.038;8.372;2022-10-16T11:11:35;20.80;99.90
12434;DHT22;6281;49.038;8.372;2022-10-16T11:14:09;20.90;99.90
12434;DHT22;6281;49.038;8.372;2022-10-16T11:16:40;21.30;99.90
12434;DHT22;6281;49.038;8.372;2022-10-16T11:19:13;21.10;99.90
12434;DHT22;6281;49.038;8.372;2022-10-16T11:21:46;21.30;99.90
12434;DHT22;6281;49.038;8.372;2022-10-16T11:24:20;21.20;99.90
12434;DHT22;6281;49.038;8.372;2022-10-16T11:26:52;21.20;99.90
12434;DHT22;6281;49.038;8.372;2022-10-16T11:29:25;21.20;99.90
12434;DHT22;6281;49.038;8.372;2022-10-16T11:31:57;21.00;99.90
12434;DHT22;6281;49.038;8.372;2022-10-16T11:34:28;20.90;99.90
12434;DHT22;6281;49.038;8.372;2022-10-16T11:37:02;21.30;99.90
12434;DHT22;6281;49.038;8.372;2022-10-16T11:39:33;21.40;99.90
12434;DHT22;6281;49.038;8.372;2022-10-16T11:42:04;21.30;99.90
12434;DHT22;6281;49.038;8.372;2022-10-16T11:44:51;21.10;99.90
12434;DHT22;6281;49.038;8.372;2022-10-16T11:47:30;21.30;99.90
12434;DHT22;6281;49.038;8.372;2022-10-16T11:50:01;21.50;99.90
12434;DHT22;6281;49.038;8.372;2022-10-16T11:52:33;22.10;99.90
12434;DHT22;6281;49.038;8.372;2022-10-16T11:55:08;21.60;99.90
12434;DHT22;6281;49.038;8.372;2022-10-16T11:57:45;21.40;99.90
12434;DHT22;6281;49.038;8.372;2022-10-16T12:00:20;21.60;99.90
12434;DHT22;6281;49.038;8.372;2022-10-16T12:02:54;21.70;99.90
12434;DHT22;6281;49.038;8.372;2022-10-16T12:05:30;21.60;99.90
12434;DHT22;6281;49.038;8.372;2022-10-16T12:08:08;21.40;99.90
12434;DHT22;6281;49.038;8.372;2022-10-16T12:10:37;21.30;99.90
12434;DHT22;6281;49.038;8.372;2022-10-16T12:13:29;21.10;99.90
12434;DHT22;6281;49.038;8.372;2022-10-16T12:16:19;21.20;99.90
12434;DHT22;6281;49.038;8.372;2022-10-16T12:18:47;21.30;99.90
12434;DHT22;6281;49.038;8.372;2022-10-16T12:21:16;21.30;99.90
12434;DHT22;6281;49.038;8.372;2022-10-16T12:23:49;21.50;99.90
12434;DHT22;6281;49.038;8.372;2022-10-16T12:26:24;22.30;99.90
12434;DHT22;6281;49.038;8.372;2022-10-16T12:28:54;22.70;99.90
12434;DHT22;6281;49.038;8.372;2022-10-16T12:31:21;22.70;99.90
12434;DHT22;6281;49.038;8.372;2022-10-16T12:33:57;22.50;99.90
12434;DHT22;6281;49.038;8.372;2022-10-16T12:36:29;22.50;99.90
12434;DHT22;6281;49.038;8.372;2022-10-16T12:38:57;22.50;99.90
12434;DHT22;6281;49.038;8.372;2022-10-16T12:41:27;22.20;99.90
12434;DHT22;6281;49.038;8.372;2022-10-16T12:43:56;22.20;99.90
12434;DHT22;6281;49.038;8.372;2022-10-16T12:46:34;21.90;99.90
12434;DHT22;6281;49.038;8.372;2022-10-16T12:49:17;21.60;99.90
12434;DHT22;6281;49.038;8.372;2022-10-16T12:51:46;21.60;99.90
12434;DHT22;6281;49.038;8.372;2022-10-16T12:54:15;21.60;99.90
12434;DHT22;6281;49.038;8.372;2022-10-16T12:56:54;21.50;99.90
12434;DHT22;6281;49.038;8.372;2022-10-16T12:59:33;21.30;99.90
12434;DHT22;6281;49.038;8.372;2022-10-16T13:02:30;21.20;99.90
12434;DHT22;6281;49.038;8.372;2022-10-16T13:05:17;21.10;99.90
12434;DHT22;6281;49.038;8.372;2022-10-16T13:07:56;21.00;99.90
12434;DHT22;6281;49.038;8.372;2022-10-16T13:10:28;20.90;99.90
12434;DHT22;6281;49.038;8.372;2022-10-16T13:13:18;20.90;99.90
12434;DHT22;6281;49.038;8.372;2022-10-16T13:16:00;20.90;99.90
12434;DHT22;6281;49.038;8.372;2022-10-16T13:18:41;20.80;99.90
12434;DHT22;6281;49.038;8.372;2022-10-16T13:21:22;20.70;99.90
12434;DHT22;6281;49.038;8.372;2022-10-16T13:23:59;20.60;99.90
12434;DHT22;6281;49.038;8.372;2022-10-16T13:26:34;20.60;99.90
12434;DHT22;6281;49.038;8.372;2022-10-16T13:29:05;20.60;99.90
12434;DHT22;6281;49.038;8.372;2022-10-16T13:31:33;20.60;99.90
12434;DHT22;6281;49.038;8.372;2022-10-16T13:34:01;20.60;99.90
12434;DHT22;6281;49.038;8.372;2022-10-16T13:36:29;20.60;99.90
12434;DHT22;6281;49.038;8.372;2022-10-16T13:39:03;20.50;99.90
12434;DHT22;6281;49.038;8.372;2022-10-16T13:41:33;20.50;99.90
12434;DHT22;6281;49.038;8.372;2022-10-16T13:44:00;20.40;99.90
12434;DHT22;6281;49.038;8.372;2022-10-16T13:46:27;20.40;99.90
12434;DHT22;6281;49.038;8.372;2022-10-16T13:49:01;20.40;99.90
12434;DHT22;6281;49.038;8.372;2022-10-16T13:51:30;20.30;99.90
12434;DHT22;6281;49.038;8.372;2022-10-16T13:53:57;20.30;99.90
12434;DHT22;6281;49.038;8.372;2022-10-16T13:56:27;20.30;99.90
12434;DHT22;6281;49.038;8.372;2022-10-16T13:59:02;20.30;99.90
12434;DHT22;6281;49.038;8.372;2022-10-16T14:01:31;20.30;99.90
12434;DHT22;6281;49.038;8.372;2022-10-16T14:04:05;20.30;99.90
12434;DHT22;6281;49.038;8.372;2022-10-16T14:06:33;20.20;99.90
12434;DHT22;6281;49.038;8.372;2022-10-16T14:09:05;20.10;99.90
12434;DHT22;6281;49.038;8.372;2022-10-16T14:11:33;20.00;99.90
12434;DHT22;6281;49.038;8.372;2022-10-16T14:14:03;19.90;99.90
12434;DHT22;6281;49.038;8.372;2022-10-16T14:16:31;19.90;99.90
12434;DHT22;6281;49.038;8.372;2022-10-16T14:19:01;20.00;99.90
12434;DHT22;6281;49.038;8.372;2022-10-16T14:21:31;20.10;99.90
12434;DHT22;6281;49.038;8.372;2022-10-16T14:23:58;20.20;99.90
12434;DHT22;6281;49.038;8.372;2022-10-16T14:26:27;20.30;99.90
12434;DHT22;6281;49.038;8.372;2022-10-16T14:29:11;20.30;99.90
12434;DHT22;6281;49.038;8.372;2022-10-16T14:31:39;20.40;99.90
12434;DHT22;6281;49.038;8.372;2022-10-16T14:34:28;20.50;99.90
12434;DHT22;6281;49.038;8.372;2022-10-16T14:36:59;20.70;99.90
12434;DHT22;6281;49.038;8.372;2022-10-16T14:39:30;20.80;99.90
12434;DHT22;6281;49.038;8.372;2022-10-16T14:41:58;21.00;99.90
12434;DHT22;6281;49.038;8.372;2022-10-16T14:44:31;21.10;99.90
12434;DHT22;6281;49.038;8.372;2022-10-16T14:47:07;21.40;99.90
12434;DHT22;6281;49.038;8.372;2022-10-16T14:49:36;21.70;99.90
12434;DHT22;6281;49.038;8.372;2022-10-16T14:52:08;22.00;99.90
12434;DHT22;6281;49.038;8.372;2022-10-16T14:54:36;22.10;99.90
12434;DHT22;6281;49.038;8.372;2022-10-16T14:57:03;22.30;99.90
12434;DHT22;6281;49.038;8.372;2022-10-16T14:59:35;22.40;99.90
12434;DHT22;6281;49.038;8.372;2022-10-16T15:02:16;22.30;99.90
12434;DHT22;6281;49.038;8.372;2022-10-16T15:04:46;22.30;99.90
12434;DHT22;6281;49.038;8.372;2022-10-16T15:07:15;22.10;99.90
12434;DHT22;6281;49.038;8.372;2022-10-16T15:09:42;21.80;99.90
12434;DHT22;6281;49.038;8.372;2022-10-16T15:12:09;21.70;99.90
12434;DHT22;6281;49.038;8.372;2022-10-16T15:14:36;21.60;99.90
12434;DHT22;6281;49.038;8.372;2022-10-16T15:17:03;21.50;99.90
12434;DHT22;6281;49.038;8.372;2022-10-16T15:19:30;21.50;99.90
12434;DHT22;6281;49.038;8.372;2022-10-16T15:21:57;21.70;99.90
12434;DHT22;6281;49.038;8.372;2022-10-16T15:24:25;21.80;99.90
12434;DHT22;6281;49.038;8.372;2022-10-16T15:26:54;21.70;99.90
12434;DHT22;6281;49.038;8.372;2022-10-16T15:29:21;21.60;99.90
12434;DHT22;6281;49.038;8.372;2022-10-16T15:31:48;21.50;99.90
12434;DHT22;6281;49.038;8.372;2022-10-16T15:34:16;21.40;99.90
12434;DHT22;6281;49.038;8.372;2022-10-16T15:36:45;21.30;99.90
12434;DHT22;6281;49.038;8.372;2022-10-16T15:39:13;21.20;99.90
12434;DHT22;6281;49.038;8.372;2022-10-16T15:41:42;21.00;99.90
12434;DHT22;6281;49.038;8.372;2022-10-16T15:44:10;20.90;99.90
12434;DHT22;6281;49.038;8.372;2022-10-16T15:46:37;20.90;99.90
12434;DHT22;6281;49.038;8.372;2022-10-16T15:54:07;20.80;99.90
12434;DHT22;6281;49.038;8.372;2022-10-16T15:56:34;20.80;99.90
12434;DHT22;6281;49.038;8.372;2022-10-16T15:59:04;20.80;99.90
12434;DHT22;6281;49.038;8.372;2022-10-16T16:01:32;20.80;99.90
12434;DHT22;6281;49.038;8.372;2022-10-16T16:04:00;20.90;99.90
12434;DHT22;6281;49.038;8.372;2022-10-16T16:06:27;21.00;99.90
12434;DHT22;6281;49.038;8.372;2022-10-16T16:08:54;21.00;99.90
12434;DHT22;6281;49.038;8.372;2022-10-16T16:11:24;20.90;99.90
12434;DHT22;6281;49.038;8.372;2022-10-16T16:13:51;20.80;99.90
12434;DHT22;6281;49.038;8.372;2022-10-16T16:16:21;20.60;99.90
12434;DHT22;6281;49.038;8.372;2022-10-16T16:18:52;20.50;99.90